sensor_id;sensor_type;location;lat;lon;timestamp;P1;durP1;ratioP1;P2;durP2;ratioP2
69034;SDS011;56091;55.756;37.412;2023-11-19T00:01:19;19.90;;;7.18;;
69034;SDS011;56091;55.756;37.412;2023-11-19T00:06:20;19.07;;;5.90;;
69034;SDS011;56091;55.756;37.412;2023-11-19T00:11:20;18.87;;;6.80;;
69034;SDS011;56091;55.756;37.412;2023-11-19T00:16:21;15.70;;;6.53;;
69034;SDS011;56091;55.756;37.412;2023-11-19T00:21:22;24.60;;;7.37;;
69034;SDS011;56091;55.756;37.412;2023-11-19T00:26:23;35.57;;;7.57;;
69034;SDS011;56091;55.756;37.412;2023-11-19T00:31:27;17.35;;;6.72;;
69034;SDS011;56091;55.756;37.412;2023-11-19T00:36:29;27.00;;;6.90;;
69034;SDS011;56091;55.756;37.412;2023-11-19T00:41:30;22.05;;;7.90;;
69034;SDS011;56091;55.756;37.412;2023-11-19T00:46:30;23.27;;;7.37;;
69034;SDS011;56091;55.756;37.412;2023-11-19T00:51:33;17.08;;;6.38;;
69034;SDS011;56091;55.756;37.412;2023-11-19T00:56:33;23.17;;;7.10;;
69034;SDS011;56091;55.756;37.412;2023-11-19T01:01:34;19.63;;;7.07;;
69034;SDS011;56091;55.756;37.412;2023-11-19T01:06:36;19.20;;;5.95;;
69034;SDS011;56091;55.756;37.412;2023-11-19T01:11:37;15.50;;;6.33;;
69034;SDS011;56091;55.756;37.412;2023-11-19T01:16:38;18.65;;;6.60;;
69034;SDS011;56091;55.756;37.412;2023-11-19T01:21:39;15.33;;;5.67;;
69034;SDS011;56091;55.756;37.412;2023-11-19T01:26:41;17.40;;;6.50;;
69034;SDS011;56091;55.756;37.412;2023-11-19T01:31:48;19.70;;;6.57;;
69034;SDS011;56091;55.756;37.412;2023-11-19T01:36:49;18.20;;;5.77;;
69034;SDS011;56091;55.756;37.412;2023-11-19T01:41:50;18.08;;;6.57;;
69034;SDS011;56091;55.756;37.412;2023-11-19T01:46:50;16.27;;;6.30;;
69034;SDS011;56091;55.756;37.412;2023-11-19T01:51:51;22.45;;;6.07;;
69034;SDS011;56091;55.756;37.412;2023-11-19T01:56:52;16.83;;;6.03;;
69034;SDS011;56091;55.756;37.412;2023-11-19T02:01:54;22.75;;;7.57;;
69034;SDS011;56091;55.756;37.412;2023-11-19T02:06:55;19.77;;;6.90;;
69034;SDS011;56091;55.756;37.412;2023-11-19T02:11:57;17.25;;;6.97;;
69034;SDS011;56091;55.756;37.412;2023-11-19T02:16:58;22.77;;;7.23;;
69034;SDS011;56091;55.756;37.412;2023-11-19T02:21:59;19.97;;;7.00;;
69034;SDS011;56091;55.756;37.412;2023-11-19T02:27:25;16.35;;;6.75;;
69034;SDS011;56091;55.756;37.412;2023-11-19T02:32:25;15.90;;;6.77;;
69034;SDS011;56091;55.756;37.412;2023-11-19T02:37:27;20.02;;;6.97;;
69034;SDS011;56091;55.756;37.412;2023-11-19T02:42:28;18.67;;;7.53;;
69034;SDS011;56091;55.756;37.412;2023-11-19T02:47:33;19.77;;;7.55;;
69034;SDS011;56091;55.756;37.412;2023-11-19T02:52:34;21.27;;;7.40;;
69034;SDS011;56091;55.756;37.412;2023-11-19T02:57:41;21.90;;;7.72;;
69034;SDS011;56091;55.756;37.412;2023-11-19T03:02:51;26.03;;;7.30;;
69034;SDS011;56091;55.756;37.412;2023-11-19T03:08:10;17.95;;;6.85;;
69034;SDS011;56091;55.756;37.412;2023-11-19T03:13:11;22.50;;;7.60;;
69034;SDS011;56091;55.756;37.412;2023-11-19T03:18:13;20.45;;;7.30;;
69034;SDS011;56091;55.756;37.412;2023-11-19T03:23:14;17.33;;;6.17;;
69034;SDS011;56091;55.756;37.412;2023-11-19T03:28:15;16.77;;;6.50;;
69034;SDS011;56091;55.756;37.412;2023-11-19T03:33:15;21.58;;;7.38;;
69034;SDS011;56091;55.756;37.412;2023-11-19T03:38:16;18.70;;;7.47;;
69034;SDS011;56091;55.756;37.412;2023-11-19T03:43:17;19.13;;;7.17;;
69034;SDS011;56091;55.756;37.412;2023-11-19T03:48:19;21.42;;;7.57;;
69034;SDS011;56091;55.756;37.412;2023-11-19T03:53:23;20.07;;;7.00;;
69034;SDS011;56091;55.756;37.412;2023-11-19T03:58:25;23.17;;;7.22;;
69034;SDS011;56091;55.756;37.412;2023-11-19T04:03:25;22.63;;;7.23;;
69034;SDS011;56091;55.756;37.412;2023-11-19T04:08:26;16.87;;;6.83;;
69034;SDS011;56091;55.756;37.412;2023-11-19T04:13:27;21.80;;;6.78;;
69034;SDS011;56091;55.756;37.412;2023-11-19T04:18:28;18.45;;;7.43;;
69034;SDS011;56091;55.756;37.412;2023-11-19T04:23:34;18.00;;;5.93;;
69034;SDS011;56091;55.756;37.412;2023-11-19T04:28:35;15.85;;;6.55;;
69034;SDS011;56091;55.756;37.412;2023-11-19T04:33:39;21.20;;;7.07;;
69034;SDS011;56091;55.756;37.412;2023-11-19T04:38:39;25.00;;;7.07;;
69034;SDS011;56091;55.756;37.412;2023-11-19T04:43:40;23.07;;;7.70;;
69034;SDS011;56091;55.756;37.412;2023-11-19T04:48:41;21.48;;;8.13;;
69034;SDS011;56091;55.756;37.412;2023-11-19T04:53:42;22.47;;;7.93;;
69034;SDS011;56091;55.756;37.412;2023-11-19T04:58:43;17.40;;;6.87;;
69034;SDS011;56091;55.756;37.412;2023-11-19T05:03:43;25.05;;;8.60;;
69034;SDS011;56091;55.756;37.412;2023-11-19T05:08:44;28.23;;;9.03;;
69034;SDS011;56091;55.756;37.412;2023-11-19T05:13:45;26.30;;;8.17;;
69034;SDS011;56091;55.756;37.412;2023-11-19T05:18:46;33.75;;;9.65;;
69034;SDS011;56091;55.756;37.412;2023-11-19T05:23:47;24.60;;;7.97;;
69034;SDS011;56091;55.756;37.412;2023-11-19T05:28:48;22.33;;;7.90;;
69034;SDS011;56091;55.756;37.412;2023-11-19T05:33:49;20.70;;;8.10;;
69034;SDS011;56091;55.756;37.412;2023-11-19T05:38:50;22.90;;;8.43;;
69034;SDS011;56091;55.756;37.412;2023-11-19T05:43:50;21.70;;;7.75;;
69034;SDS011;56091;55.756;37.412;2023-11-19T05:48:52;19.27;;;7.37;;
69034;SDS011;56091;55.756;37.412;2023-11-19T05:53:52;23.05;;;8.35;;
69034;SDS011;56091;55.756;37.412;2023-11-19T05:58:53;23.60;;;7.97;;
69034;SDS011;56091;55.756;37.412;2023-11-19T06:03:54;16.50;;;7.07;;
69034;SDS011;56091;55.756;37.412;2023-11-19T06:08:55;18.48;;;6.80;;
69034;SDS011;56091;55.756;37.412;2023-11-19T06:13:55;16.23;;;6.33;;
69034;SDS011;56091;55.756;37.412;2023-11-19T06:18:56;18.40;;;6.10;;
69034;SDS011;56091;55.756;37.412;2023-11-19T06:24:02;16.98;;;6.00;;
69034;SDS011;56091;55.756;37.412;2023-11-19T06:29:03;18.90;;;6.37;;
69034;SDS011;56091;55.756;37.412;2023-11-19T06:34:03;16.45;;;7.10;;
69034;SDS011;56091;55.756;37.412;2023-11-19T06:39:14;17.93;;;6.17;;
69034;SDS011;56091;55.756;37.412;2023-11-19T06:44:15;21.45;;;7.22;;
69034;SDS011;56091;55.756;37.412;2023-11-19T06:49:16;19.93;;;6.03;;
69034;SDS011;56091;55.756;37.412;2023-11-19T06:54:19;14.60;;;5.40;;
69034;SDS011;56091;55.756;37.412;2023-11-19T06:59:20;18.15;;;5.75;;
69034;SDS011;56091;55.756;37.412;2023-11-19T07:04:21;15.27;;;5.80;;
69034;SDS011;56091;55.756;37.412;2023-11-19T07:09:22;22.27;;;7.22;;
69034;SDS011;56091;55.756;37.412;2023-11-19T07:14:23;18.63;;;6.70;;
69034;SDS011;56091;55.756;37.412;2023-11-19T07:19:24;21.90;;;6.70;;
69034;SDS011;56091;55.756;37.412;2023-11-19T07:24:25;18.85;;;6.82;;
69034;SDS011;56091;55.756;37.412;2023-11-19T07:29:27;17.83;;;6.50;;
69034;SDS011;56091;55.756;37.412;2023-11-19T07:34:28;17.25;;;7.35;;
69034;SDS011;56091;55.756;37.412;2023-11-19T07:39:30;27.25;;;7.20;;
69034;SDS011;56091;55.756;37.412;2023-11-19T07:44:31;23.27;;;6.60;;
69034;SDS011;56091;55.756;37.412;2023-11-19T07:49:32;24.67;;;7.45;;
69034;SDS011;56091;55.756;37.412;2023-11-19T07:54:37;19.77;;;7.60;;
69034;SDS011;56091;55.756;37.412;2023-11-19T07:59:38;24.90;;;8.70;;
69034;SDS011;56091;55.756;37.412;2023-11-19T08:04:40;20.95;;;7.72;;
69034;SDS011;56091;55.756;37.412;2023-11-19T08:09:45;24.73;;;8.90;;
69034;SDS011;56091;55.756;37.412;2023-11-19T08:14:45;25.88;;;8.50;;
69034;SDS011;56091;55.756;37.412;2023-11-19T08:19:46;22.27;;;8.03;;
69034;SDS011;56091;55.756;37.412;2023-11-19T08:24:50;15.00;;;6.23;;
69034;SDS011;56091;55.756;37.412;2023-11-19T08:29:51;17.42;;;6.70;;
69034;SDS011;56091;55.756;37.412;2023-11-19T08:34:52;20.73;;;7.67;;
69034;SDS011;56091;55.756;37.412;2023-11-19T08:39:53;17.48;;;6.95;;
69034;SDS011;56091;55.756;37.412;2023-11-19T08:44:53;23.03;;;7.93;;
69034;SDS011;56091;55.756;37.412;2023-11-19T08:49:55;17.03;;;7.40;;
69034;SDS011;56091;55.756;37.412;2023-11-19T08:54:55;21.77;;;7.50;;
69034;SDS011;56091;55.756;37.412;2023-11-19T08:59:56;25.57;;;7.33;;
69034;SDS011;56091;55.756;37.412;2023-11-19T09:04:57;19.27;;;6.43;;
69034;SDS011;56091;55.756;37.412;2023-11-19T09:09:58;23.52;;;6.93;;
69034;SDS011;56091;55.756;37.412;2023-11-19T09:14:59;21.47;;;7.57;;
69034;SDS011;56091;55.756;37.412;2023-11-19T09:20:00;20.13;;;7.40;;
69034;SDS011;56091;55.756;37.412;2023-11-19T09:25:00;26.10;;;7.97;;
69034;SDS011;56091;55.756;37.412;2023-11-19T09:30:01;20.73;;;6.80;;
69034;SDS011;56091;55.756;37.412;2023-11-19T09:35:04;19.73;;;6.73;;
69034;SDS011;56091;55.756;37.412;2023-11-19T09:40:07;18.35;;;7.03;;
69034;SDS011;56091;55.756;37.412;2023-11-19T09:45:12;16.20;;;6.93;;
69034;SDS011;56091;55.756;37.412;2023-11-19T09:50:19;25.00;;;8.30;;
69034;SDS011;56091;55.756;37.412;2023-11-19T09:55:20;20.27;;;7.23;;
69034;SDS011;56091;55.756;37.412;2023-11-19T10:00:21;20.27;;;8.65;;
69034;SDS011;56091;55.756;37.412;2023-11-19T10:05:22;17.37;;;7.63;;
69034;SDS011;56091;55.756;37.412;2023-11-19T10:10:24;21.83;;;8.20;;
69034;SDS011;56091;55.756;37.412;2023-11-19T10:15:25;35.43;;;8.60;;
69034;SDS011;56091;55.756;37.412;2023-11-19T10:20:27;21.88;;;8.38;;
69034;SDS011;56091;55.756;37.412;2023-11-19T10:25:28;23.03;;;8.43;;
69034;SDS011;56091;55.756;37.412;2023-11-19T10:30:30;23.60;;;8.77;;
69034;SDS011;56091;55.756;37.412;2023-11-19T10:35:35;23.13;;;9.23;;
69034;SDS011;56091;55.756;37.412;2023-11-19T10:40:39;27.95;;;8.65;;
69034;SDS011;56091;55.756;37.412;2023-11-19T10:45:42;27.33;;;8.37;;
69034;SDS011;56091;55.756;37.412;2023-11-19T10:50:44;22.88;;;8.70;;
69034;SDS011;56091;55.756;37.412;2023-11-19T10:55:48;21.83;;;8.00;;
69034;SDS011;56091;55.756;37.412;2023-11-19T11:00:52;22.23;;;8.47;;
69034;SDS011;56091;55.756;37.412;2023-11-19T11:05:54;24.33;;;8.60;;
69034;SDS011;56091;55.756;37.412;2023-11-19T11:10:55;19.67;;;7.73;;
69034;SDS011;56091;55.756;37.412;2023-11-19T11:15:58;18.98;;;8.18;;
69034;SDS011;56091;55.756;37.412;2023-11-19T11:21:06;21.00;;;8.43;;
69034;SDS011;56091;55.756;37.412;2023-11-19T11:31:39;24.77;;;7.80;;
69034;SDS011;56091;55.756;37.412;2023-11-19T11:36:56;20.98;;;8.88;;
69034;SDS011;56091;55.756;37.412;2023-11-19T11:47:20;22.52;;;9.38;;
69034;SDS011;56091;55.756;37.412;2023-11-19T11:52:21;26.53;;;9.07;;
69034;SDS011;56091;55.756;37.412;2023-11-19T11:57:21;23.05;;;8.48;;
69034;SDS011;56091;55.756;37.412;2023-11-19T12:02:24;19.37;;;8.53;;
69034;SDS011;56091;55.756;37.412;2023-11-19T12:07:25;23.65;;;9.00;;
69034;SDS011;56091;55.756;37.412;2023-11-19T12:12:26;22.20;;;8.77;;
69034;SDS011;56091;55.756;37.412;2023-11-19T12:22:43;26.92;;;9.40;;
69034;SDS011;56091;55.756;37.412;2023-11-19T12:27:45;23.77;;;8.53;;
69034;SDS011;56091;55.756;37.412;2023-11-19T12:32:46;18.77;;;8.55;;
69034;SDS011;56091;55.756;37.412;2023-11-19T12:37:47;22.00;;;8.27;;
69034;SDS011;56091;55.756;37.412;2023-11-19T12:42:48;21.85;;;8.70;;
69034;SDS011;56091;55.756;37.412;2023-11-19T12:47:49;24.00;;;8.30;;
69034;SDS011;56091;55.756;37.412;2023-11-19T12:52:56;17.13;;;7.00;;
69034;SDS011;56091;55.756;37.412;2023-11-19T12:57:57;20.60;;;7.50;;
69034;SDS011;56091;55.756;37.412;2023-11-19T13:02:59;17.45;;;6.47;;
69034;SDS011;56091;55.756;37.412;2023-11-19T13:13:04;17.98;;;6.18;;
69034;SDS011;56091;55.756;37.412;2023-11-19T13:18:05;17.37;;;6.17;;
69034;SDS011;56091;55.756;37.412;2023-11-19T13:23:07;14.85;;;6.20;;
69034;SDS011;56091;55.756;37.412;2023-11-19T13:28:08;21.40;;;7.70;;
69034;SDS011;56091;55.756;37.412;2023-11-19T13:33:10;40.97;;;13.07;;
69034;SDS011;56091;55.756;37.412;2023-11-19T13:38:12;27.60;;;9.87;;
69034;SDS011;56091;55.756;37.412;2023-11-19T13:43:13;19.80;;;8.20;;
69034;SDS011;56091;55.756;37.412;2023-11-19T13:48:13;25.53;;;9.67;;
69034;SDS011;56091;55.756;37.412;2023-11-19T13:53:14;16.95;;;7.13;;
69034;SDS011;56091;55.756;37.412;2023-11-19T13:58:15;18.30;;;8.43;;
69034;SDS011;56091;55.756;37.412;2023-11-19T14:03:19;19.73;;;8.13;;
69034;SDS011;56091;55.756;37.412;2023-11-19T14:08:20;28.02;;;9.43;;
69034;SDS011;56091;55.756;37.412;2023-11-19T14:13:23;23.93;;;8.47;;
69034;SDS011;56091;55.756;37.412;2023-11-19T14:18:24;21.63;;;8.02;;
69034;SDS011;56091;55.756;37.412;2023-11-19T14:23:25;16.73;;;7.57;;
69034;SDS011;56091;55.756;37.412;2023-11-19T14:28:28;20.80;;;8.87;;
69034;SDS011;56091;55.756;37.412;2023-11-19T14:33:28;21.13;;;8.07;;
69034;SDS011;56091;55.756;37.412;2023-11-19T14:38:29;32.17;;;12.67;;
69034;SDS011;56091;55.756;37.412;2023-11-19T14:43:30;43.27;;;16.77;;
69034;SDS011;56091;55.756;37.412;2023-11-19T14:48:33;36.78;;;13.40;;
69034;SDS011;56091;55.756;37.412;2023-11-19T14:53:36;30.83;;;12.23;;
69034;SDS011;56091;55.756;37.412;2023-11-19T14:58:37;31.65;;;11.63;;
69034;SDS011;56091;55.756;37.412;2023-11-19T15:03:40;27.67;;;10.63;;
69034;SDS011;56091;55.756;37.412;2023-11-19T15:08:41;25.13;;;9.82;;
69034;SDS011;56091;55.756;37.412;2023-11-19T15:13:42;26.13;;;10.57;;
69034;SDS011;56091;55.756;37.412;2023-11-19T15:18:43;19.77;;;7.70;;
69034;SDS011;56091;55.756;37.412;2023-11-19T15:23:43;28.17;;;10.68;;
69034;SDS011;56091;55.756;37.412;2023-11-19T15:28:44;47.13;;;15.53;;
69034;SDS011;56091;55.756;37.412;2023-11-19T15:33:45;56.43;;;21.97;;
69034;SDS011;56091;55.756;37.412;2023-11-19T15:38:47;47.78;;;16.00;;
69034;SDS011;56091;55.756;37.412;2023-11-19T15:43:49;33.40;;;12.87;;
69034;SDS011;56091;55.756;37.412;2023-11-19T15:48:49;33.72;;;12.88;;
69034;SDS011;56091;55.756;37.412;2023-11-19T15:53:51;33.43;;;11.60;;
69034;SDS011;56091;55.756;37.412;2023-11-19T15:58:51;28.03;;;11.37;;
69034;SDS011;56091;55.756;37.412;2023-11-19T16:03:52;25.05;;;10.82;;
69034;SDS011;56091;55.756;37.412;2023-11-19T16:08:53;26.27;;;10.70;;
69034;SDS011;56091;55.756;37.412;2023-11-19T16:13:55;23.03;;;10.03;;
69034;SDS011;56091;55.756;37.412;2023-11-19T16:18:58;25.25;;;10.25;;
69034;SDS011;56091;55.756;37.412;2023-11-19T16:24:03;27.80;;;10.97;;
69034;SDS011;56091;55.756;37.412;2023-11-19T16:29:06;41.50;;;16.63;;
69034;SDS011;56091;55.756;37.412;2023-11-19T16:34:07;61.87;;;23.27;;
69034;SDS011;56091;55.756;37.412;2023-11-19T16:39:07;34.40;;;13.43;;
69034;SDS011;56091;55.756;37.412;2023-11-19T16:44:10;30.20;;;12.15;;
69034;SDS011;56091;55.756;37.412;2023-11-19T16:49:10;30.03;;;11.83;;
69034;SDS011;56091;55.756;37.412;2023-11-19T16:54:11;28.77;;;11.73;;
69034;SDS011;56091;55.756;37.412;2023-11-19T16:59:12;27.00;;;10.25;;
69034;SDS011;56091;55.756;37.412;2023-11-19T17:04:16;29.73;;;11.60;;
69034;SDS011;56091;55.756;37.412;2023-11-19T17:09:17;28.20;;;11.52;;
69034;SDS011;56091;55.756;37.412;2023-11-19T17:14:18;32.40;;;10.57;;
69034;SDS011;56091;55.756;37.412;2023-11-19T17:19:19;31.00;;;10.83;;
69034;SDS011;56091;55.756;37.412;2023-11-19T17:24:27;27.40;;;11.07;;
69034;SDS011;56091;55.756;37.412;2023-11-19T17:29:28;36.67;;;11.40;;
69034;SDS011;56091;55.756;37.412;2023-11-19T17:34:29;35.03;;;11.27;;
69034;SDS011;56091;55.756;37.412;2023-11-19T17:39:34;34.33;;;11.97;;
69034;SDS011;56091;55.756;37.412;2023-11-19T17:44:37;32.30;;;12.25;;
69034;SDS011;56091;55.756;37.412;2023-11-19T17:49:41;30.37;;;12.10;;
69034;SDS011;56091;55.756;37.412;2023-11-19T17:54:42;34.23;;;14.23;;
69034;SDS011;56091;55.756;37.412;2023-11-19T17:59:42;40.72;;;12.95;;
69034;SDS011;56091;55.756;37.412;2023-11-19T18:04:47;31.33;;;12.30;;
69034;SDS011;56091;55.756;37.412;2023-11-19T18:09:51;30.65;;;11.90;;
69034;SDS011;56091;55.756;37.412;2023-11-19T18:14:51;31.70;;;12.63;;
69034;SDS011;56091;55.756;37.412;2023-11-19T18:19:52;40.90;;;13.13;;
69034;SDS011;56091;55.756;37.412;2023-11-19T18:24:53;31.70;;;12.48;;
69034;SDS011;56091;55.756;37.412;2023-11-19T18:29:55;34.00;;;11.87;;
69034;SDS011;56091;55.756;37.412;2023-11-19T18:34:55;31.70;;;12.80;;
69034;SDS011;56091;55.756;37.412;2023-11-19T18:39:56;37.47;;;12.88;;
69034;SDS011;56091;55.756;37.412;2023-11-19T18:44:57;31.57;;;11.87;;
69034;SDS011;56091;55.756;37.412;2023-11-19T18:49:57;31.60;;;11.93;;
69034;SDS011;56091;55.756;37.412;2023-11-19T18:54:58;38.50;;;13.37;;
69034;SDS011;56091;55.756;37.412;2023-11-19T18:59:59;32.00;;;12.35;;
69034;SDS011;56091;55.756;37.412;2023-11-19T19:05:00;35.17;;;12.40;;
69034;SDS011;56091;55.756;37.412;2023-11-19T19:10:01;29.38;;;11.93;;
69034;SDS011;56091;55.756;37.412;2023-11-19T19:15:05;42.73;;;13.40;;
69034;SDS011;56091;55.756;37.412;2023-11-19T19:20:06;37.60;;;12.05;;
69034;SDS011;56091;55.756;37.412;2023-11-19T19:25:10;41.70;;;12.20;;
69034;SDS011;56091;55.756;37.412;2023-11-19T19:30:11;31.17;;;12.43;;
69034;SDS011;56091;55.756;37.412;2023-11-19T19:35:12;37.90;;;12.77;;
69034;SDS011;56091;55.756;37.412;2023-11-19T19:40:17;31.57;;;13.27;;
69034;SDS011;56091;55.756;37.412;2023-11-19T19:45:19;36.42;;;12.40;;
69034;SDS011;56091;55.756;37.412;2023-11-19T19:50:20;33.53;;;13.03;;
69034;SDS011;56091;55.756;37.412;2023-11-19T19:55:20;35.30;;;13.15;;
69034;SDS011;56091;55.756;37.412;2023-11-19T20:00:21;37.53;;;11.67;;
69034;SDS011;56091;55.756;37.412;2023-11-19T20:05:22;33.05;;;12.43;;
69034;SDS011;56091;55.756;37.412;2023-11-19T20:10:23;35.87;;;12.17;;
69034;SDS011;56091;55.756;37.412;2023-11-19T20:15:24;35.60;;;13.17;;
69034;SDS011;56091;55.756;37.412;2023-11-19T20:20:25;34.63;;;12.25;;
69034;SDS011;56091;55.756;37.412;2023-11-19T20:25:26;34.77;;;11.97;;
69034;SDS011;56091;55.756;37.412;2023-11-19T20:30:27;32.20;;;12.13;;
69034;SDS011;56091;55.756;37.412;2023-11-19T20:35:30;43.73;;;12.53;;
69034;SDS011;56091;55.756;37.412;2023-11-19T20:40:31;27.92;;;10.77;;
69034;SDS011;56091;55.756;37.412;2023-11-19T20:45:32;34.87;;;11.63;;
69034;SDS011;56091;55.756;37.412;2023-11-19T20:50:33;37.97;;;12.53;;
69034;SDS011;56091;55.756;37.412;2023-11-19T20:55:37;35.70;;;11.90;;
69034;SDS011;56091;55.756;37.412;2023-11-19T21:00:38;37.63;;;13.40;;
69034;SDS011;56091;55.756;37.412;2023-11-19T21:05:42;38.13;;;12.05;;
69034;SDS011;56091;55.756;37.412;2023-11-19T21:10:44;33.20;;;12.87;;
69034;SDS011;56091;55.756;37.412;2023-11-19T21:15:44;42.40;;;12.45;;
69034;SDS011;56091;55.756;37.412;2023-11-19T21:20:45;33.60;;;12.53;;
69034;SDS011;56091;55.756;37.412;2023-11-19T21:25:46;38.90;;;12.68;;
69034;SDS011;56091;55.756;37.412;2023-11-19T21:30:47;33.23;;;13.27;;
69034;SDS011;56091;55.756;37.412;2023-11-19T21:35:47;35.17;;;13.40;;
69034;SDS011;56091;55.756;37.412;2023-11-19T21:40:48;48.45;;;14.15;;
69034;SDS011;56091;55.756;37.412;2023-11-19T21:45:51;44.88;;;14.20;;
69034;SDS011;56091;55.756;37.412;2023-11-19T21:50:53;38.90;;;13.03;;
69034;SDS011;56091;55.756;37.412;2023-11-19T21:55:53;38.25;;;13.57;;
69034;SDS011;56091;55.756;37.412;2023-11-19T22:00:54;37.77;;;12.73;;
69034;SDS011;56091;55.756;37.412;2023-11-19T22:05:55;36.80;;;12.68;;
69034;SDS011;56091;55.756;37.412;2023-11-19T22:10:56;36.93;;;11.57;;
69034;SDS011;56091;55.756;37.412;2023-11-19T22:15:57;29.00;;;11.82;;
69034;SDS011;56091;55.756;37.412;2023-11-19T22:20:58;30.47;;;10.93;;
69034;SDS011;56091;55.756;37.412;2023-11-19T22:25:58;32.63;;;11.30;;
69034;SDS011;56091;55.756;37.412;2023-11-19T22:31:00;36.92;;;12.82;;
69034;SDS011;56091;55.756;37.412;2023-11-19T22:36:00;40.77;;;12.37;;
69034;SDS011;56091;55.756;37.412;2023-11-19T22:41:01;32.40;;;11.33;;
69034;SDS011;56091;55.756;37.412;2023-11-19T22:46:02;31.90;;;12.10;;
69034;SDS011;56091;55.756;37.412;2023-11-19T22:51:04;29.20;;;11.07;;
69034;SDS011;56091;55.756;37.412;2023-11-19T22:56:05;25.88;;;10.20;;
69034;SDS011;56091;55.756;37.412;2023-11-19T23:01:06;31.90;;;10.50;;
69034;SDS011;56091;55.756;37.412;2023-11-19T23:06:07;36.25;;;11.20;;
69034;SDS011;56091;55.756;37.412;2023-11-19T23:11:08;28.27;;;10.00;;
69034;SDS011;56091;55.756;37.412;2023-11-19T23:16:09;29.10;;;10.85;;
69034;SDS011;56091;55.756;37.412;2023-11-19T23:21:13;28.40;;;9.60;;
69034;SDS011;56091;55.756;37.412;2023-11-19T23:26:14;28.70;;;10.03;;
69034;SDS011;56091;55.756;37.412;2023-11-19T23:31:15;29.02;;;10.20;;
69034;SDS011;56091;55.756;37.412;2023-11-19T23:36:16;27.23;;;10.07;;
69034;SDS011;56091;55.756;37.412;2023-11-19T23:41:16;33.60;;;9.87;;
69034;SDS011;56091;55.756;37.412;2023-11-19T23:46:17;26.52;;;9.40;;
69034;SDS011;56091;55.756;37.412;2023-11-19T23:51:20;30.47;;;10.80;;
69034;SDS011;56091;55.756;37.412;2023-11-19T23:56:20;26.93;;;10.17;;
